Time;durP1;ratioP1;P1;durP2;ratioP2;P2;SDS_P1;SDS_P2;PMS_P1;PMS_P2;Temp;Humidity;BMP_temperature;BMP_pressure;BME280_temperature;BME280_humidity;BME280_pressure;Samples;Min_cycle;Max_cycle;Signal;HPM_P1;HPM_P2
2023/12/14 00:00:27;;;;;;;10.85;7.68;;;7.70;99.90;;;;;;5060760;28;20044;-37
2023/12/14 00:02:53;;;;;;;10.50;8.52;;;7.70;99.90;;;;;;5059478;28;20460;-37
2023/12/14 00:05:18;;;;;;;11.30;8.82;;;7.70;99.90;;;;;;5061216;28;20025;-38
2023/12/14 00:07:44;;;;;;;12.43;9.13;;;7.70;99.90;;;;;;5060079;28;20083;-37
2023/12/14 00:10:10;;;;;;;10.60;8.02;;;7.60;99.90;;;;;;5060556;28;20024;-37
2023/12/14 00:12:35;;;;;;;8.77;6.82;;;7.60;99.90;;;;;;5060243;28;20078;-37
2023/12/14 00:15:01;;;;;;;12.05;9.25;;;7.60;99.90;;;;;;5058926;28;20020;-37
2023/12/14 00:17:27;;;;;;;10.85;8.43;;;7.60;99.90;;;;;;5060452;28;20102;-36
2023/12/14 00:19:53;;;;;;;9.95;7.95;;;7.60;99.90;;;;;;5059801;28;20025;-36
2023/12/14 00:22:18;;;;;;;12.70;9.50;;;7.60;99.90;;;;;;5059875;28;20840;-36
2023/12/14 00:24:44;;;;;;;11.38;8.68;;;7.60;99.90;;;;;;5060134;28;20037;-36
2023/12/14 00:27:10;;;;;;;10.25;8.15;;;7.60;99.90;;;;;;5060320;28;20082;-36
2023/12/14 00:29:35;;;;;;;11.85;8.57;;;7.50;99.90;;;;;;5059893;28;20028;-36
2023/12/14 00:32:01;;;;;;;10.93;8.68;;;7.50;99.90;;;;;;5060326;28;20017;-37
2023/12/14 00:34:26;;;;;;;12.15;8.95;;;7.40;99.90;;;;;;5060628;28;20023;-36
2023/12/14 00:36:52;;;;;;;13.00;9.32;;;7.40;99.90;;;;;;5059611;28;20032;-37
2023/12/14 00:39:18;;;;;;;11.75;9.23;;;7.40;99.90;;;;;;5060453;28;20105;-36
2023/12/14 00:41:43;;;;;;;10.98;8.27;;;7.40;99.90;;;;;;5048615;28;20799;-37
2023/12/14 00:44:09;;;;;;;10.73;8.48;;;7.30;99.90;;;;;;5059786;28;20094;-37
2023/12/14 00:46:34;;;;;;;10.50;7.93;;;7.40;99.90;;;;;;5059995;28;20047;-37
2023/12/14 00:49:02;;;;;;;10.18;7.22;;;7.30;99.90;;;;;;5059355;28;20886;-37
2023/12/14 00:51:27;;;;;;;10.05;7.70;;;7.40;99.90;;;;;;5058868;28;20101;-37
2023/12/14 00:53:53;;;;;;;12.13;8.77;;;7.40;99.90;;;;;;5059600;28;20028;-37
2023/12/14 00:56:18;;;;;;;10.30;7.43;;;7.40;99.90;;;;;;5060164;28;20155;-37
2023/12/14 00:58:44;;;;;;;10.32;8.25;;;7.30;99.90;;;;;;5059951;28;20040;-37
2023/12/14 01:01:09;;;;;;;9.85;8.07;;;7.30;99.90;;;;;;5058835;28;20028;-36
2023/12/14 01:03:35;;;;;;;10.65;8.02;;;7.40;99.90;;;;;;5059026;28;20033;-36
2023/12/14 01:06:00;;;;;;;11.93;8.90;;;7.30;99.90;;;;;;5057862;28;20020;-36
2023/12/14 01:08:26;;;;;;;11.27;9.20;;;7.30;99.90;;;;;;5060133;28;20034;-35
2023/12/14 01:10:51;;;;;;;11.95;8.57;;;7.30;99.90;;;;;;5059102;28;20482;-36
2023/12/14 01:13:17;;;;;;;11.93;8.23;;;7.30;99.90;;;;;;5059044;28;20017;-36
2023/12/14 01:15:43;;;;;;;10.30;8.50;;;7.30;99.90;;;;;;5058972;28;20554;-36
2023/12/14 01:18:08;;;;;;;10.38;7.88;;;7.30;99.90;;;;;;5058495;28;20044;-36
2023/12/14 01:20:34;;;;;;;8.82;6.72;;;7.20;99.90;;;;;;5059298;28;20032;-36
2023/12/14 01:22:59;;;;;;;8.65;6.97;;;7.20;99.90;;;;;;5059614;28;20031;-37
2023/12/14 01:25:25;;;;;;;8.40;6.78;;;7.30;99.90;;;;;;5059280;28;20139;-37
2023/12/14 01:27:51;;;;;;;9.25;7.72;;;7.20;99.90;;;;;;5059555;28;20115;-37
2023/12/14 01:30:16;;;;;;;9.48;7.72;;;7.30;99.90;;;;;;5058936;28;20035;-36
2023/12/14 01:32:42;;;;;;;9.10;7.50;;;7.20;99.90;;;;;;5058130;28;20032;-37
2023/12/14 01:35:07;;;;;;;9.15;7.35;;;7.20;99.90;;;;;;5059720;28;20031;-37
2023/12/14 01:37:33;;;;;;;9.15;7.38;;;7.20;99.90;;;;;;5059101;28;20037;-37
2023/12/14 01:39:59;;;;;;;9.40;7.70;;;7.20;99.90;;;;;;5058656;28;20063;-37
2023/12/14 01:42:24;;;;;;;11.52;8.93;;;7.20;99.90;;;;;;5059913;28;20642;-37
2023/12/14 01:44:50;;;;;;;9.07;8.00;;;7.20;99.90;;;;;;5059309;28;20751;-37
2023/12/14 01:47:15;;;;;;;9.80;8.13;;;7.20;99.90;;;;;;5059220;28;20027;-37
2023/12/14 01:49:41;;;;;;;9.07;7.85;;;7.20;99.90;;;;;;5060299;28;20452;-37
2023/12/14 01:52:07;;;;;;;11.25;9.50;;;7.20;99.90;;;;;;5061188;28;20442;-36
2023/12/14 01:54:33;;;;;;;10.10;8.05;;;7.20;99.90;;;;;;5063519;28;20565;-37
2023/12/14 01:56:59;;;;;;;11.00;8.77;;;7.20;99.90;;;;;;5063349;28;20557;-36
2023/12/14 01:59:24;;;;;;;12.07;9.30;;;7.20;99.90;;;;;;5063312;28;20131;-36
2023/12/14 02:01:56;;;;;;;12.00;9.48;;;7.20;99.90;;;;;;5061654;28;20751;-37
2023/12/14 02:04:23;;;;;;;12.60;9.93;;;7.10;99.90;;;;;;5063437;28;20127;-37
2023/12/14 02:06:49;;;;;;;11.23;8.90;;;7.10;99.90;;;;;;5062970;28;20032;-36
2023/12/14 02:09:15;;;;;;;11.10;9.25;;;7.10;99.90;;;;;;5062258;28;20035;-37
2023/12/14 02:11:40;;;;;;;10.38;8.38;;;7.10;99.90;;;;;;5062747;28;20047;-37
2023/12/14 02:14:08;;;;;;;11.32;7.80;;;7.00;99.90;;;;;;5061660;28;20028;-38
2023/12/14 02:16:34;;;;;;;10.85;8.43;;;7.10;99.90;;;;;;5062313;28;20040;-38
2023/12/14 02:19:00;;;;;;;10.73;8.68;;;7.10;99.90;;;;;;5062366;28;20036;-37
2023/12/14 02:21:25;;;;;;;9.55;8.20;;;7.10;99.90;;;;;;5062354;28;20020;-37
2023/12/14 02:23:51;;;;;;;12.00;8.40;;;7.10;99.90;;;;;;5062780;28;20032;-37
2023/12/14 02:26:16;;;;;;;8.88;7.03;;;7.10;99.90;;;;;;5062618;28;20097;-38
2023/12/14 02:28:42;;;;;;;9.70;8.70;;;7.10;99.90;;;;;;5061941;28;20028;-38
2023/12/14 02:31:08;;;;;;;11.05;8.23;;;7.10;99.90;;;;;;5062440;28;20020;-37
2023/12/14 02:33:33;;;;;;;9.88;8.18;;;7.00;99.90;;;;;;5062566;28;20036;-39
2023/12/14 02:35:59;;;;;;;12.63;9.88;;;7.10;99.90;;;;;;5061885;28;20035;-37
2023/12/14 02:38:25;;;;;;;11.90;9.45;;;7.00;99.90;;;;;;5061667;28;20781;-37
2023/12/14 02:40:52;;;;;;;11.30;9.18;;;7.00;99.90;;;;;;5062064;28;20028;-37
2023/12/14 02:43:18;;;;;;;10.70;8.60;;;7.00;99.90;;;;;;5061564;28;20082;-38
2023/12/14 02:45:45;;;;;;;11.20;8.80;;;7.00;99.90;;;;;;5062253;28;20032;-37
2023/12/14 02:48:11;;;;;;;9.48;8.05;;;7.00;99.90;;;;;;5062704;28;20131;-37
2023/12/14 02:50:37;;;;;;;8.80;7.25;;;7.00;99.90;;;;;;5061172;28;20087;-37
2023/12/14 02:53:03;;;;;;;10.73;7.80;;;7.00;99.90;;;;;;5061639;28;20135;-37
2023/12/14 02:55:31;;;;;;;9.20;7.47;;;7.00;99.90;;;;;;5062221;28;20027;-39
2023/12/14 02:57:56;;;;;;;8.40;7.03;;;7.00;99.90;;;;;;5061018;28;20039;-37
2023/12/14 03:00:22;;;;;;;9.73;8.10;;;7.00;99.90;;;;;;5061761;28;20029;-37
2023/12/14 03:02:48;;;;;;;10.00;8.18;;;7.00;99.90;;;;;;5061450;28;20028;-38
2023/12/14 03:05:16;;;;;;;10.07;7.80;;;7.00;99.90;;;;;;5061487;28;20025;-36
2023/12/14 03:07:42;;;;;;;9.40;7.68;;;7.00;99.90;;;;;;5062125;28;20028;-37
2023/12/14 03:10:10;;;;;;;8.05;6.95;;;7.00;99.90;;;;;;5061434;28;20038;-37
2023/12/14 03:12:36;;;;;;;8.93;7.55;;;7.00;99.90;;;;;;5060933;28;20031;-37
2023/12/14 03:15:01;;;;;;;8.20;7.18;;;7.00;99.90;;;;;;5061047;28;20020;-38
2023/12/14 03:17:27;;;;;;;9.38;7.10;;;7.00;99.90;;;;;;5061592;28;20058;-37
2023/12/14 03:19:53;;;;;;;9.07;7.63;;;7.00;99.90;;;;;;5060383;28;20009;-37
2023/12/14 03:22:18;;;;;;;9.05;7.47;;;7.00;99.90;;;;;;5061284;28;20028;-38
2023/12/14 03:24:44;;;;;;;7.93;7.03;;;6.90;99.90;;;;;;5061280;28;20781;-37
2023/12/14 03:27:10;;;;;;;9.00;7.60;;;6.90;99.90;;;;;;5060814;28;20020;-37
2023/12/14 03:29:35;;;;;;;8.63;7.18;;;6.90;99.90;;;;;;5061194;28;20059;-37
2023/12/14 03:32:01;;;;;;;9.30;8.32;;;6.90;99.90;;;;;;5060298;28;20046;-38
2023/12/14 03:34:27;;;;;;;7.38;6.63;;;6.90;99.90;;;;;;5062119;28;20124;-38
2023/12/14 03:36:52;;;;;;;8.10;6.97;;;6.90;99.90;;;;;;5060866;28;20019;-38
2023/12/14 03:39:18;;;;;;;8.80;7.80;;;7.00;99.90;;;;;;5061813;28;20032;-38
2023/12/14 03:41:44;;;;;;;7.93;7.05;;;6.90;99.90;;;;;;5061247;28;20020;-37
2023/12/14 03:44:10;;;;;;;7.85;7.05;;;6.90;99.90;;;;;;5061046;28;20031;-37
2023/12/14 03:46:36;;;;;;;7.93;6.97;;;6.90;99.90;;;;;;5061019;28;20025;-37
2023/12/14 03:49:02;;;;;;;8.23;6.82;;;6.90;99.90;;;;;;5061659;28;20024;-37
2023/12/14 03:51:27;;;;;;;8.35;7.47;;;6.90;99.90;;;;;;5061995;28;20041;-37
2023/12/14 03:53:53;;;;;;;7.85;7.05;;;6.90;99.90;;;;;;5060504;28;20539;-37
2023/12/14 03:56:18;;;;;;;8.52;7.63;;;6.90;99.90;;;;;;5061201;28;20718;-37
2023/12/14 03:58:44;;;;;;;9.00;6.70;;;7.00;99.90;;;;;;5060885;28;20051;-37
2023/12/14 04:01:20;;;;;;;6.68;5.97;;;7.00;99.90;;;;;;5060225;28;20032;-36
2023/12/14 04:03:47;;;;;;;7.53;6.70;;;7.00;99.90;;;;;;5060633;28;20063;-37
2023/12/14 04:06:15;;;;;;;6.80;6.10;;;7.00;99.90;;;;;;5060936;28;20070;-37
2023/12/14 04:08:42;;;;;;;6.93;6.22;;;7.00;99.90;;;;;;5048921;28;20067;-37
2023/12/14 04:11:08;;;;;;;6.80;6.10;;;7.00;99.90;;;;;;5060229;28;20570;-36
2023/12/14 04:13:34;;;;;;;8.75;7.00;;;7.00;99.90;;;;;;5060236;28;20036;-36
2023/12/14 04:16:00;;;;;;;7.72;6.72;;;7.00;99.90;;;;;;5058584;28;20020;-36
2023/12/14 04:18:26;;;;;;;8.05;6.57;;;7.00;99.90;;;;;;5060659;28;20040;-36
2023/12/14 04:20:55;;;;;;;7.45;6.60;;;7.00;99.90;;;;;;5060374;28;20808;-36
2023/12/14 04:23:20;;;;;;;8.73;7.78;;;7.00;99.90;;;;;;5059369;28;20044;-36
2023/12/14 04:25:46;;;;;;;9.15;7.15;;;7.00;99.90;;;;;;5060513;28;20111;-37
2023/12/14 04:28:11;;;;;;;8.82;6.93;;;7.00;99.90;;;;;;5059215;28;20032;-36
2023/12/14 04:30:37;;;;;;;8.18;7.28;;;7.10;99.90;;;;;;5060715;28;20032;-36
2023/12/14 04:33:02;;;;;;;8.05;7.20;;;7.10;99.90;;;;;;5059280;28;20035;-36
2023/12/14 04:35:28;;;;;;;9.00;6.97;;;7.10;99.90;;;;;;5060126;28;20024;-37
2023/12/14 04:37:53;;;;;;;8.20;7.25;;;7.10;99.90;;;;;;5060079;28;20442;-38
2023/12/14 04:40:19;;;;;;;8.10;6.97;;;7.10;99.90;;;;;;5060097;28;20501;-36
2023/12/14 04:42:54;;;;;;;7.90;7.10;;;7.10;99.90;;;;;;5058802;28;20029;-37
2023/12/14 04:45:23;;;;;;;7.22;6.50;;;7.10;99.90;;;;;;5060369;28;20024;-36
2023/12/14 04:47:48;;;;;;;6.80;6.10;;;7.10;99.90;;;;;;5059517;28;20769;-36
2023/12/14 04:50:17;;;;;;;7.25;6.50;;;7.10;99.90;;;;;;5059227;28;20562;-36
2023/12/14 04:52:43;;;;;;;7.57;6.78;;;7.10;99.90;;;;;;5059773;28;20028;-36
2023/12/14 04:55:08;;;;;;;7.68;6.88;;;7.00;99.90;;;;;;5059470;28;20024;-36
2023/12/14 04:57:34;;;;;;;8.57;7.35;;;7.00;99.90;;;;;;5058939;28;20024;-36
2023/12/14 05:00:03;;;;;;;7.60;6.80;;;7.00;99.90;;;;;;5059033;28;20020;-36
2023/12/14 05:02:31;;;;;;;8.23;7.00;;;7.00;99.90;;;;;;5060179;28;20380;-36
2023/12/14 05:04:57;;;;;;;8.68;7.65;;;7.00;99.90;;;;;;5057444;28;20039;-35
2023/12/14 05:07:23;;;;;;;9.25;8.10;;;7.00;99.90;;;;;;5060065;28;20494;-36
2023/12/14 05:09:49;;;;;;;8.93;7.32;;;6.90;99.90;;;;;;5059388;28;20028;-38
2023/12/14 05:12:15;;;;;;;8.02;7.05;;;6.90;99.90;;;;;;5059725;28;20029;-35
2023/12/14 05:14:40;;;;;;;9.32;7.47;;;6.90;99.90;;;;;;5059649;28;20101;-37
2023/12/14 05:17:06;;;;;;;8.32;7.43;;;6.80;99.90;;;;;;5059377;28;20544;-36
2023/12/14 05:19:34;;;;;;;7.43;6.60;;;6.80;99.90;;;;;;5058853;28;20040;-36
2023/12/14 05:22:00;;;;;;;8.05;6.97;;;6.80;99.90;;;;;;5059244;28;20028;-37
2023/12/14 05:24:26;;;;;;;10.18;8.23;;;6.80;99.90;;;;;;5058699;28;20069;-37
2023/12/14 05:26:51;;;;;;;9.00;7.78;;;6.80;99.90;;;;;;5060286;28;20588;-37
2023/12/14 05:29:17;;;;;;;8.27;7.22;;;6.80;99.90;;;;;;5063556;28;20064;-37
2023/12/14 05:31:43;;;;;;;7.25;6.43;;;6.80;99.90;;;;;;5062931;28;20546;-36
2023/12/14 05:34:08;;;;;;;6.90;6.20;;;6.70;99.90;;;;;;5063413;28;20013;-36
2023/12/14 05:36:34;;;;;;;7.80;6.35;;;6.80;99.90;;;;;;5053250;28;20115;-36
2023/12/14 05:39:00;;;;;;;7.53;6.10;;;6.80;99.90;;;;;;5062962;28;20043;-36
2023/12/14 05:41:25;;;;;;;6.78;5.97;;;6.70;99.90;;;;;;5064708;28;20021;-37
2023/12/14 05:43:51;;;;;;;7.30;6.35;;;6.70;99.90;;;;;;5064220;28;20142;-37
2023/12/14 05:46:23;;;;;;;7.90;6.90;;;6.70;99.90;;;;;;5062652;28;20027;-36
2023/12/14 05:48:49;;;;;;;8.73;6.60;;;6.70;99.90;;;;;;5063284;28;20516;-36
2023/12/14 05:51:46;;;;;;;7.88;6.20;;;6.70;99.90;;;;;;5062645;28;20297;-37
2023/12/14 05:54:12;;;;;;;6.65;5.68;;;6.70;99.90;;;;;;5061674;28;20483;-35
2023/12/14 05:56:37;;;;;;;7.07;6.13;;;6.70;99.90;;;;;;5063653;28;20032;-37
2023/12/14 05:59:03;;;;;;;8.23;7.28;;;6.70;99.90;;;;;;5062876;28;20050;-37
2023/12/14 06:01:29;;;;;;;9.40;6.72;;;6.60;99.90;;;;;;5062379;28;20029;-36
2023/12/14 06:03:54;;;;;;;7.93;6.88;;;6.70;99.90;;;;;;5076630;28;20082;-36
2023/12/14 06:06:20;;;;;;;9.63;8.15;;;6.60;99.90;;;;;;5069126;28;20028;-36
2023/12/14 06:08:46;;;;;;;8.32;6.85;;;6.60;99.90;;;;;;5063201;28;20372;-43
2023/12/14 06:11:14;;;;;;;7.05;6.30;;;6.60;99.90;;;;;;5061666;28;20074;-36
2023/12/14 06:13:40;;;;;;;7.03;5.90;;;6.60;99.90;;;;;;5061946;28;20490;-36
2023/12/14 06:16:12;;;;;;;7.13;6.22;;;6.60;99.90;;;;;;5062376;28;20028;-37
2023/12/14 06:18:39;;;;;;;6.30;5.60;;;6.60;99.90;;;;;;5062468;28;20041;-36
2023/12/14 06:21:06;;;;;;;5.43;4.82;;;6.60;99.90;;;;;;5061531;28;20017;-35
2023/12/14 06:23:31;;;;;;;6.10;5.50;;;6.60;99.90;;;;;;5062634;28;20025;-35
2023/12/14 06:25:58;;;;;;;6.97;5.82;;;6.60;99.90;;;;;;5062026;28;20035;-35
2023/12/14 06:28:23;;;;;;;7.03;5.50;;;6.60;99.90;;;;;;5061732;28;20094;-35
2023/12/14 06:30:49;;;;;;;6.82;5.95;;;6.60;99.90;;;;;;5061644;28;20020;-35
2023/12/14 06:33:15;;;;;;;6.82;6.00;;;6.60;99.90;;;;;;5062674;28;20028;-36
2023/12/14 06:35:40;;;;;;;7.18;5.78;;;6.60;99.90;;;;;;5061746;28;20040;-36
2023/12/14 06:38:06;;;;;;;6.68;5.97;;;6.60;99.90;;;;;;5060851;28;20403;-36
2023/12/14 06:40:31;;;;;;;8.55;6.32;;;6.60;99.90;;;;;;5062774;28;20526;-37
2023/12/14 06:42:58;;;;;;;6.57;5.47;;;6.60;99.90;;;;;;5061359;28;20054;-37
2023/12/14 06:45:23;;;;;;;9.45;6.97;;;6.60;99.90;;;;;;5062402;28;20021;-35
2023/12/14 06:47:49;;;;;;;7.30;6.22;;;6.50;99.90;;;;;;5061720;28;20089;-38
2023/12/14 06:50:15;;;;;;;6.85;6.15;;;6.50;99.90;;;;;;5062057;28;20796;-36
2023/12/14 06:52:40;;;;;;;8.63;6.93;;;6.50;99.90;;;;;;5061508;28;20051;-36
2023/12/14 06:55:07;;;;;;;8.63;7.20;;;6.40;99.90;;;;;;5061344;28;20435;-37
2023/12/14 06:57:32;;;;;;;7.95;6.65;;;6.40;99.90;;;;;;5060900;28;20024;-36
2023/12/14 06:59:58;;;;;;;7.80;6.78;;;6.40;99.90;;;;;;5061522;28;20035;-41
2023/12/14 07:02:23;;;;;;;9.07;7.05;;;6.40;99.90;;;;;;5061620;28;20024;-37
2023/12/14 07:04:49;;;;;;;7.53;6.28;;;6.40;99.90;;;;;;5061669;28;20111;-37
2023/12/14 07:07:15;;;;;;;7.65;6.28;;;6.30;99.90;;;;;;5062213;28;20036;-37
2023/12/14 07:09:40;;;;;;;9.35;6.65;;;6.40;99.90;;;;;;5051210;28;20021;-37
2023/12/14 07:12:07;;;;;;;7.60;6.10;;;6.30;99.90;;;;;;5061225;28;20793;-35
2023/12/14 07:14:33;;;;;;;6.88;5.82;;;6.30;99.90;;;;;;5060469;28;20043;-35
2023/12/14 07:16:59;;;;;;;6.95;5.75;;;6.30;99.90;;;;;;5059924;28;20024;-36
2023/12/14 07:19:24;;;;;;;6.93;5.78;;;6.30;99.90;;;;;;5060273;28;20125;-35
2023/12/14 07:21:50;;;;;;;8.00;5.45;;;6.30;99.90;;;;;;5060979;28;20096;-35
2023/12/14 07:24:16;;;;;;;5.95;5.13;;;6.30;99.90;;;;;;5060963;28;20490;-35
2023/12/14 07:26:41;;;;;;;6.65;5.78;;;6.30;99.90;;;;;;5061276;28;20074;-35
2023/12/14 07:29:07;;;;;;;6.50;5.25;;;6.30;99.90;;;;;;5061256;28;20415;-36
2023/12/14 07:31:33;;;;;;;6.68;5.20;;;6.30;99.90;;;;;;5060690;28;20050;-36
2023/12/14 07:33:59;;;;;;;5.82;4.68;;;6.30;99.90;;;;;;5061203;28;20037;-36
2023/12/14 07:36:25;;;;;;;6.40;5.40;;;6.30;99.90;;;;;;5062490;28;20090;-36
2023/12/14 07:38:50;;;;;;;6.65;5.43;;;6.30;99.90;;;;;;5061063;28;20038;-36
2023/12/14 07:41:16;;;;;;;6.25;5.25;;;6.30;99.90;;;;;;5062312;28;20395;-35
2023/12/14 07:43:41;;;;;;;6.68;5.70;;;6.30;99.90;;;;;;5061970;28;20117;-35
2023/12/14 07:46:07;;;;;;;6.13;5.10;;;6.30;99.90;;;;;;5060109;28;20407;-45
2023/12/14 07:48:33;;;;;;;5.88;4.85;;;6.20;99.90;;;;;;5061552;28;20809;-36
2023/12/14 07:50:58;;;;;;;5.07;4.47;;;6.20;99.90;;;;;;5059567;28;20044;-37
2023/12/14 07:53:27;;;;;;;7.75;4.82;;;6.20;99.90;;;;;;5060465;28;20037;-36
2023/12/14 07:55:52;;;;;;;5.68;4.40;;;6.30;99.90;;;;;;5061567;28;20040;-36
2023/12/14 07:58:18;;;;;;;5.10;4.55;;;6.20;99.90;;;;;;5062540;28;20040;-35
2023/12/14 08:00:43;;;;;;;6.05;4.63;;;6.20;99.90;;;;;;5060569;28;20027;-40
2023/12/14 08:03:09;;;;;;;4.85;4.28;;;6.30;99.90;;;;;;5060678;28;20313;-41
2023/12/14 08:05:34;;;;;;;7.10;5.18;;;6.20;99.90;;;;;;5060782;28;20039;-36
2023/12/14 08:08:00;;;;;;;6.15;5.15;;;6.20;99.90;;;;;;5059809;28;20113;-36
2023/12/14 08:10:25;;;;;;;5.82;4.50;;;6.20;99.90;;;;;;5061424;28;20102;-36
2023/12/14 08:12:52;;;;;;;5.03;4.38;;;6.20;99.90;;;;;;5060271;28;20534;-35
2023/12/14 08:15:17;;;;;;;5.40;4.85;;;6.20;99.90;;;;;;5059276;28;20633;-36
2023/12/14 08:17:43;;;;;;;6.50;5.18;;;6.20;99.90;;;;;;5060699;28;20032;-36
2023/12/14 08:20:11;;;;;;;5.60;4.40;;;6.20;99.90;;;;;;5059319;28;20539;-36
2023/12/14 08:22:37;;;;;;;5.40;4.38;;;6.10;99.90;;;;;;5060533;28;20040;-37
2023/12/14 08:25:05;;;;;;;5.20;4.68;;;6.20;99.90;;;;;;5060283;28;20027;-37
2023/12/14 08:27:31;;;;;;;6.05;4.75;;;6.10;99.90;;;;;;5059809;28;20047;-36
2023/12/14 08:29:56;;;;;;;5.50;4.35;;;6.10;99.90;;;;;;5059948;28;20024;-36
2023/12/14 08:32:22;;;;;;;4.53;3.88;;;6.10;99.90;;;;;;5060387;28;20743;-36
2023/12/14 08:34:47;;;;;;;5.65;4.13;;;6.10;99.90;;;;;;5059108;28;20025;-37
2023/12/14 08:37:13;;;;;;;4.82;4.10;;;6.20;99.90;;;;;;5059536;28;20031;-36
2023/12/14 08:39:38;;;;;;;4.00;3.60;;;6.20;99.90;;;;;;5060216;28;20063;-37
2023/12/14 08:42:04;;;;;;;5.50;4.25;;;6.20;99.90;;;;;;5058690;28;20052;-36
2023/12/14 08:44:30;;;;;;;4.90;4.35;;;6.30;99.90;;;;;;5060059;28;20098;-36
2023/12/14 08:46:55;;;;;;;4.40;3.95;;;6.30;99.90;;;;;;5059496;28;20032;-37
2023/12/14 08:49:23;;;;;;;4.68;4.18;;;6.30;99.90;;;;;;5059959;28;20040;-39
2023/12/14 08:51:48;;;;;;;6.03;4.60;;;6.30;99.90;;;;;;5059471;28;20063;-36
2023/12/14 08:54:14;;;;;;;4.82;3.97;;;6.30;99.90;;;;;;5060935;28;20787;-42
2023/12/14 08:56:40;;;;;;;4.80;4.30;;;6.30;99.90;;;;;;5059032;28;20024;-37
2023/12/14 08:59:05;;;;;;;5.90;4.72;;;6.40;99.90;;;;;;5060064;28;20044;-37
2023/12/14 09:01:31;;;;;;;5.10;4.45;;;6.40;99.90;;;;;;5059210;28;20067;-36
2023/12/14 09:03:56;;;;;;;6.18;4.75;;;6.40;99.90;;;;;;5059877;28;20787;-37
2023/12/14 09:06:22;;;;;;;4.55;4.13;;;6.40;99.90;;;;;;5060236;28;20464;-36
2023/12/14 09:08:50;;;;;;;6.00;4.60;;;6.40;99.90;;;;;;5059599;28;20032;-36
2023/12/14 09:11:16;;;;;;;4.97;4.28;;;6.40;99.90;;;;;;5059860;28;20071;-36
2023/12/14 09:13:42;;;;;;;5.47;4.03;;;6.40;99.90;;;;;;5059966;28;20695;-36
2023/12/14 09:16:08;;;;;;;4.28;3.80;;;6.40;99.90;;;;;;5059933;28;20036;-37
2023/12/14 09:18:34;;;;;;;4.93;3.80;;;6.40;99.90;;;;;;5060035;28;20035;-37
2023/12/14 09:21:00;;;;;;;5.13;4.18;;;6.40;99.90;;;;;;5058231;28;20020;-37
2023/12/14 09:23:25;;;;;;;4.95;4.35;;;6.40;99.90;;;;;;5059272;28;21000;-37
2023/12/14 09:25:51;;;;;;;5.60;4.70;;;6.50;99.90;;;;;;5059636;28;20027;-44
2023/12/14 09:28:16;;;;;;;4.47;3.78;;;6.50;99.90;;;;;;5060171;28;20535;-37
2023/12/14 09:30:42;;;;;;;4.28;3.88;;;6.50;99.90;;;;;;5059612;28;20016;-37
2023/12/14 09:33:08;;;;;;;4.05;3.65;;;6.50;99.90;;;;;;5059832;28;20894;-37
2023/12/14 09:35:36;;;;;;;4.63;4.13;;;6.50;99.90;;;;;;5066741;28;20031;-36
2023/12/14 09:38:03;;;;;;;4.47;4.03;;;6.50;99.90;;;;;;5066826;28;20028;-37
2023/12/14 09:40:29;;;;;;;4.90;4.25;;;6.50;99.90;;;;;;5059881;28;20032;-36
2023/12/14 09:42:56;;;;;;;5.80;4.60;;;6.40;99.90;;;;;;5067283;28;20035;-36
2023/12/14 09:45:27;;;;;;;5.00;4.50;;;6.40;99.90;;;;;;5058972;28;20031;-37
2023/12/14 09:47:53;;;;;;;5.25;4.30;;;6.30;99.90;;;;;;5059434;28;20020;-36
2023/12/14 09:50:21;;;;;;;6.05;4.60;;;6.30;99.90;;;;;;5059800;28;20039;-36
2023/12/14 09:52:48;;;;;;;5.60;4.55;;;6.40;99.90;;;;;;5058995;28;20029;-40
2023/12/14 09:55:15;;;;;;;5.25;4.10;;;6.40;99.90;;;;;;5059701;28;20491;-37
2023/12/14 09:57:40;;;;;;;5.80;4.30;;;6.40;99.90;;;;;;5059276;28;20351;-37
2023/12/14 10:00:10;;;;;;;5.03;4.40;;;6.40;99.90;;;;;;5059283;28;20419;-39
2023/12/14 10:02:36;;;;;;;4.40;3.90;;;6.50;99.90;;;;;;5060220;28;20042;-37
2023/12/14 10:05:02;;;;;;;5.13;4.63;;;6.50;99.90;;;;;;5059446;28;20504;-36
2023/12/14 10:07:28;;;;;;;4.30;3.53;;;6.50;99.90;;;;;;5059329;28;20435;-35
2023/12/14 10:09:53;;;;;;;4.38;3.97;;;6.50;99.90;;;;;;5058403;28;20028;-35
2023/12/14 10:12:21;;;;;;;5.57;3.90;;;6.50;99.90;;;;;;5059908;28;20753;-35
2023/12/14 10:14:48;;;;;;;5.45;4.20;;;6.50;99.90;;;;;;5061491;28;20039;-36
2023/12/14 10:17:18;;;;;;;5.10;4.38;;;6.50;99.90;;;;;;5062920;28;20037;-36
2023/12/14 10:19:44;;;;;;;5.15;4.65;;;6.50;99.90;;;;;;5062613;28;20107;-38
2023/12/14 10:22:11;;;;;;;4.72;4.22;;;6.60;99.90;;;;;;5062414;28;20032;-36
2023/12/14 10:24:40;;;;;;;5.60;4.88;;;6.60;99.90;;;;;;5063792;28;20020;-36
2023/12/14 10:27:09;;;;;;;6.45;4.63;;;6.60;99.90;;;;;;5061582;28;20032;-37
2023/12/14 10:29:37;;;;;;;5.80;4.75;;;6.60;99.90;;;;;;5063026;28;20111;-37
2023/12/14 10:32:06;;;;;;;6.40;5.25;;;6.60;99.90;;;;;;5062156;28;20032;-37
2023/12/14 10:34:35;;;;;;;6.50;5.35;;;6.60;99.90;;;;;;5061372;28;20448;-36
2023/12/14 10:37:03;;;;;;;6.47;5.47;;;6.60;99.90;;;;;;5062502;28;20395;-36
2023/12/14 10:39:31;;;;;;;5.95;5.35;;;6.60;99.90;;;;;;5062910;28;20661;-37
2023/12/14 10:41:57;;;;;;;6.57;5.70;;;6.60;99.90;;;;;;5061516;28;20033;-36
2023/12/14 10:44:26;;;;;;;7.25;5.70;;;6.50;99.90;;;;;;5062207;28;20646;-36
2023/12/14 10:46:57;;;;;;;6.53;5.10;;;6.60;99.90;;;;;;5061391;28;20024;-36
2023/12/14 10:49:28;;;;;;;6.45;5.15;;;6.60;99.90;;;;;;5061306;28;20086;-37
2023/12/14 10:51:56;;;;;;;6.30;5.28;;;6.70;99.90;;;;;;5060866;28;20080;-36
2023/12/14 10:54:26;;;;;;;6.15;5.25;;;6.70;99.90;;;;;;5061997;28;20032;-36
2023/12/14 10:56:56;;;;;;;5.88;5.28;;;6.70;99.90;;;;;;5061213;28;20075;-36
2023/12/14 10:59:24;;;;;;;6.50;5.82;;;6.70;99.90;;;;;;5061585;28;20036;-36
2023/12/14 11:01:54;;;;;;;5.82;5.22;;;6.70;99.90;;;;;;5060999;28;20590;-37
2023/12/14 11:04:22;;;;;;;6.85;5.85;;;6.80;99.90;;;;;;5061702;28;20020;-36
2023/12/14 11:06:48;;;;;;;8.05;5.65;;;6.80;99.90;;;;;;5061226;28;20024;-36
2023/12/14 11:09:18;;;;;;;6.30;5.53;;;6.80;99.90;;;;;;5061706;28;20059;-36
2023/12/14 11:11:58;;;;;;;5.45;4.88;;;6.80;99.90;;;;;;5061572;28;20671;-41
2023/12/14 11:14:27;;;;;;;5.97;5.03;;;6.80;99.90;;;;;;5062352;28;20100;-37
2023/12/14 11:17:01;;;;;;;6.38;5.65;;;6.80;99.90;;;;;;5061431;28;20059;-36
2023/12/14 11:19:28;;;;;;;7.63;6.00;;;6.80;99.90;;;;;;5041552;28;20065;-37
2023/12/14 11:21:57;;;;;;;6.82;5.70;;;6.80;99.90;;;;;;5055757;28;20024;-36
2023/12/14 11:24:23;;;;;;;7.60;6.05;;;6.80;99.90;;;;;;5060204;28;20028;-36
2023/12/14 11:26:51;;;;;;;6.25;5.47;;;6.80;99.90;;;;;;5060512;28;20324;-36
2023/12/14 11:29:19;;;;;;;6.85;5.35;;;6.80;99.90;;;;;;5060837;28;20020;-37
2023/12/14 11:31:45;;;;;;;6.28;5.35;;;6.80;99.90;;;;;;5060463;28;20028;-36
2023/12/14 11:34:11;;;;;;;6.32;5.55;;;6.80;99.90;;;;;;5060903;28;20028;-37
2023/12/14 11:36:39;;;;;;;6.00;5.10;;;6.80;99.90;;;;;;5061386;28;20069;-36
2023/12/14 11:39:05;;;;;;;6.68;5.55;;;6.80;99.90;;;;;;5060432;28;20087;-37
2023/12/14 11:41:33;;;;;;;8.07;6.35;;;6.80;99.90;;;;;;5060633;28;20082;-37
2023/12/14 11:43:59;;;;;;;5.65;4.97;;;6.70;99.90;;;;;;5060167;28;20024;-37
2023/12/14 11:46:25;;;;;;;7.18;5.30;;;6.70;99.90;;;;;;5060359;28;20031;-37
2023/12/14 11:48:51;;;;;;;7.50;6.45;;;6.70;99.90;;;;;;5060582;28;20029;-37
2023/12/14 11:51:17;;;;;;;7.40;5.85;;;6.70;99.90;;;;;;5060030;28;20087;-37
2023/12/14 11:53:50;;;;;;;7.30;6.00;;;6.60;99.90;;;;;;5060728;28;20446;-36
2023/12/14 11:56:20;;;;;;;8.65;6.70;;;6.60;99.90;;;;;;5060877;28;20487;-37
2023/12/14 11:58:48;;;;;;;7.63;6.35;;;6.60;99.90;;;;;;5059706;28;20565;-37
2023/12/14 12:01:21;;;;;;;8.43;6.25;;;6.70;99.90;;;;;;5061341;28;20028;-36
2023/12/14 12:03:47;;;;;;;6.78;4.95;;;6.70;99.90;;;;;;5060892;28;20032;-36
2023/12/14 12:06:26;;;;;;;7.10;5.70;;;6.70;99.90;;;;;;5059556;28;20064;-36
2023/12/14 12:08:52;;;;;;;7.40;5.65;;;6.80;99.90;;;;;;5059878;28;20029;-36
2023/12/14 12:11:19;;;;;;;6.75;5.47;;;6.80;99.90;;;;;;5061000;28;20032;-36
2023/12/14 12:13:54;;;;;;;6.35;4.95;;;6.80;99.90;;;;;;5059461;28;20033;-36
2023/12/14 12:16:19;;;;;;;5.97;5.20;;;6.90;99.90;;;;;;5040884;28;20032;-37
2023/12/14 12:18:45;;;;;;;5.82;4.78;;;6.90;99.90;;;;;;5055150;28;20041;-36
2023/12/14 12:21:13;;;;;;;6.88;5.65;;;7.00;99.90;;;;;;5059603;28;20025;-36
2023/12/14 12:23:41;;;;;;;5.85;4.55;;;6.90;99.90;;;;;;5059663;28;20033;-37
2023/12/14 12:26:07;;;;;;;6.70;5.43;;;7.00;99.90;;;;;;5060649;28;20031;-35
2023/12/14 12:28:32;;;;;;;5.78;4.90;;;7.00;99.90;;;;;;5059261;28;20021;-35
2023/12/14 12:30:59;;;;;;;5.35;4.85;;;7.00;99.90;;;;;;5059906;28;20025;-35
2023/12/14 12:33:25;;;;;;;6.35;4.95;;;7.10;99.90;;;;;;5059747;28;20150;-37
2023/12/14 12:35:51;;;;;;;6.53;5.82;;;7.20;99.90;;;;;;5059329;28;20443;-37
2023/12/14 12:38:18;;;;;;;7.25;5.22;;;7.20;99.90;;;;;;5059772;28;20037;-37
2023/12/14 12:40:44;;;;;;;6.57;5.30;;;7.20;99.90;;;;;;5048075;28;20451;-35
2023/12/14 12:43:10;;;;;;;6.45;5.32;;;7.10;99.90;;;;;;5059167;28;20028;-36
2023/12/14 12:45:36;;;;;;;5.80;5.20;;;7.20;99.90;;;;;;5059416;28;20186;-36
2023/12/14 12:48:06;;;;;;;5.82;4.85;;;7.20;99.90;;;;;;5058605;28;20024;-36
2023/12/14 12:50:32;;;;;;;6.40;4.75;;;7.20;99.90;;;;;;5058419;28;20044;-36